Terminal Aerodrome Forecast
Issued by NWS

Home | Current Version | Previous Version | Text Only | Print | Product List | Glossary On
Versions: 1 2 3 4 5 6 7 8 9 10 11 12 13
000
FTUS42 TJSJ 030500
TAFJMZ
TAF
TJMZ 030520Z 0306/0406 06005KT P6SM FEW030
     FM031330 07012KT P6SM FEW030 SCT040
     FM031900 07010KT P6SM VCSH SCT030 SCT040
      AMD NOT SKED=

USA.gov is the U.S. government's official web portal to all federal, state and local government web resources and services.